sensor_id;sensor_type;location;lat;lon;timestamp;temperature;humidity
63013;DHT22;62113;45.624;11.700;2023-03-05T00:01:13;9.90;58.00
63013;DHT22;62113;45.624;11.700;2023-03-05T00:03:39;9.90;57.80
63013;DHT22;62113;45.624;11.700;2023-03-05T00:06:05;9.80;57.60
63013;DHT22;62113;45.624;11.700;2023-03-05T00:08:31;9.80;57.60
63013;DHT22;62113;45.624;11.700;2023-03-05T00:10:57;9.70;57.80
63013;DHT22;62113;45.624;11.700;2023-03-05T00:13:23;9.70;58.00
63013;DHT22;62113;45.624;11.700;2023-03-05T00:15:48;9.70;58.10
63013;DHT22;62113;45.624;11.700;2023-03-05T00:18:14;9.70;58.20
63013;DHT22;62113;45.624;11.700;2023-03-05T00:20:39;9.70;58.30
63013;DHT22;62113;45.624;11.700;2023-03-05T00:23:05;9.70;58.40
63013;DHT22;62113;45.624;11.700;2023-03-05T00:25:30;9.70;58.30
63013;DHT22;62113;45.624;11.700;2023-03-05T00:27:56;9.70;58.40
63013;DHT22;62113;45.624;11.700;2023-03-05T00:30:21;9.70;58.40
63013;DHT22;62113;45.624;11.700;2023-03-05T00:32:47;9.70;58.60
63013;DHT22;62113;45.624;11.700;2023-03-05T00:35:12;9.70;58.50
63013;DHT22;62113;45.624;11.700;2023-03-05T00:37:38;9.50;58.50
63013;DHT22;62113;45.624;11.700;2023-03-05T00:40:04;9.60;58.60
63013;DHT22;62113;45.624;11.700;2023-03-05T00:42:29;9.50;58.60
63013;DHT22;62113;45.624;11.700;2023-03-05T00:44:55;9.50;58.70
63013;DHT22;62113;45.624;11.700;2023-03-05T00:47:20;9.50;58.80
63013;DHT22;62113;45.624;11.700;2023-03-05T00:49:46;9.50;58.70
63013;DHT22;62113;45.624;11.700;2023-03-05T00:52:11;9.60;59.20
63013;DHT22;62113;45.624;11.700;2023-03-05T00:54:37;9.60;59.00
63013;DHT22;62113;45.624;11.700;2023-03-05T00:57:02;9.50;58.60
63013;DHT22;62113;45.624;11.700;2023-03-05T00:59:30;9.50;58.50
63013;DHT22;62113;45.624;11.700;2023-03-05T01:01:55;9.50;58.40
63013;DHT22;62113;45.624;11.700;2023-03-05T01:04:21;9.50;58.30
63013;DHT22;62113;45.624;11.700;2023-03-05T01:06:46;9.50;58.30
63013;DHT22;62113;45.624;11.700;2023-03-05T01:09:12;9.50;58.30
63013;DHT22;62113;45.624;11.700;2023-03-05T01:11:37;9.40;58.30
63013;DHT22;62113;45.624;11.700;2023-03-05T01:14:03;9.40;58.30
63013;DHT22;62113;45.624;11.700;2023-03-05T01:16:28;9.30;58.40
63013;DHT22;62113;45.624;11.700;2023-03-05T01:18:54;9.20;58.90
63013;DHT22;62113;45.624;11.700;2023-03-05T01:21:19;9.20;59.10
63013;DHT22;62113;45.624;11.700;2023-03-05T01:23:46;9.20;58.60
63013;DHT22;62113;45.624;11.700;2023-03-05T01:26:11;9.10;58.70
63013;DHT22;62113;45.624;11.700;2023-03-05T01:28:37;9.10;58.80
63013;DHT22;62113;45.624;11.700;2023-03-05T01:31:07;9.10;58.80
63013;DHT22;62113;45.624;11.700;2023-03-05T01:33:33;9.10;59.00
63013;DHT22;62113;45.624;11.700;2023-03-05T01:35:58;9.10;58.90
63013;DHT22;62113;45.624;11.700;2023-03-05T01:38:24;9.10;58.90
63013;DHT22;62113;45.624;11.700;2023-03-05T01:40:49;9.10;58.80
63013;DHT22;62113;45.624;11.700;2023-03-05T01:43:20;9.00;59.30
63013;DHT22;62113;45.624;11.700;2023-03-05T01:48:31;8.90;59.40
63013;DHT22;62113;45.624;11.700;2023-03-05T01:50:56;9.00;59.30
63013;DHT22;62113;45.624;11.700;2023-03-05T01:53:22;8.90;59.40
63013;DHT22;62113;45.624;11.700;2023-03-05T01:55:47;8.90;59.40
63013;DHT22;62113;45.624;11.700;2023-03-05T01:58:13;8.90;59.60
63013;DHT22;62113;45.624;11.700;2023-03-05T02:00:45;8.80;59.80
63013;DHT22;62113;45.624;11.700;2023-03-05T02:03:11;8.80;59.70
63013;DHT22;62113;45.624;11.700;2023-03-05T02:05:38;8.90;59.70
63013;DHT22;62113;45.624;11.700;2023-03-05T02:08:07;8.80;59.90
63013;DHT22;62113;45.624;11.700;2023-03-05T02:10:33;8.80;60.80
63013;DHT22;62113;45.624;11.700;2023-03-05T02:13:01;8.80;60.10
63013;DHT22;62113;45.624;11.700;2023-03-05T02:15:28;8.70;59.80
63013;DHT22;62113;45.624;11.700;2023-03-05T02:17:53;8.70;59.80
63013;DHT22;62113;45.624;11.700;2023-03-05T02:20:29;8.70;59.90
63013;DHT22;62113;45.624;11.700;2023-03-05T02:22:55;8.70;59.90
63013;DHT22;62113;45.624;11.700;2023-03-05T02:27:50;8.70;59.90
63013;DHT22;62113;45.624;11.700;2023-03-05T02:30:17;8.70;59.90
63013;DHT22;62113;45.624;11.700;2023-03-05T02:32:42;8.70;59.90
63013;DHT22;62113;45.624;11.700;2023-03-05T02:35:08;8.70;59.90
63013;DHT22;62113;45.624;11.700;2023-03-05T02:37:33;8.70;60.10
63013;DHT22;62113;45.624;11.700;2023-03-05T02:39:59;8.70;60.00
63013;DHT22;62113;45.624;11.700;2023-03-05T02:42:25;8.70;60.00
63013;DHT22;62113;45.624;11.700;2023-03-05T02:44:51;8.70;60.00
63013;DHT22;62113;45.624;11.700;2023-03-05T02:47:16;8.70;60.40
63013;DHT22;62113;45.624;11.700;2023-03-05T02:49:41;8.70;60.10
63013;DHT22;62113;45.624;11.700;2023-03-05T02:52:07;8.60;60.00
63013;DHT22;62113;45.624;11.700;2023-03-05T02:54:33;8.60;60.00
63013;DHT22;62113;45.624;11.700;2023-03-05T02:56:58;8.60;60.10
63013;DHT22;62113;45.624;11.700;2023-03-05T02:59:24;8.60;60.10
63013;DHT22;62113;45.624;11.700;2023-03-05T03:01:49;8.60;60.40
63013;DHT22;62113;45.624;11.700;2023-03-05T03:04:14;8.60;60.30
63013;DHT22;62113;45.624;11.700;2023-03-05T03:06:40;8.60;60.10
63013;DHT22;62113;45.624;11.700;2023-03-05T03:09:05;8.50;60.10
63013;DHT22;62113;45.624;11.700;2023-03-05T03:11:31;8.50;60.10
63013;DHT22;62113;45.624;11.700;2023-03-05T03:13:57;8.50;60.10
63013;DHT22;62113;45.624;11.700;2023-03-05T03:16:23;8.50;60.00
63013;DHT22;62113;45.624;11.700;2023-03-05T03:18:48;8.40;60.00
63013;DHT22;62113;45.624;11.700;2023-03-05T03:21:18;8.40;60.20
63013;DHT22;62113;45.624;11.700;2023-03-05T03:23:44;8.30;60.20
63013;DHT22;62113;45.624;11.700;2023-03-05T03:26:10;8.30;60.50
63013;DHT22;62113;45.624;11.700;2023-03-05T03:28:35;8.30;60.30
63013;DHT22;62113;45.624;11.700;2023-03-05T03:31:01;8.30;60.20
63013;DHT22;62113;45.624;11.700;2023-03-05T03:33:26;8.30;60.30
63013;DHT22;62113;45.624;11.700;2023-03-05T03:35:52;8.30;60.20
63013;DHT22;62113;45.624;11.700;2023-03-05T03:38:17;8.30;60.30
63013;DHT22;62113;45.624;11.700;2023-03-05T03:40:42;8.30;60.30
63013;DHT22;62113;45.624;11.700;2023-03-05T03:43:08;8.20;60.40
63013;DHT22;62113;45.624;11.700;2023-03-05T03:45:34;8.30;60.40
63013;DHT22;62113;45.624;11.700;2023-03-05T03:47:59;8.20;60.20
63013;DHT22;62113;45.624;11.700;2023-03-05T03:50:25;8.20;60.20
63013;DHT22;62113;45.624;11.700;2023-03-05T03:52:50;8.20;60.30
63013;DHT22;62113;45.624;11.700;2023-03-05T03:55:16;8.20;60.20
63013;DHT22;62113;45.624;11.700;2023-03-05T03:57:41;8.20;60.30
63013;DHT22;62113;45.624;11.700;2023-03-05T04:00:08;8.20;60.20
63013;DHT22;62113;45.624;11.700;2023-03-05T04:02:35;8.10;60.20
63013;DHT22;62113;45.624;11.700;2023-03-05T04:05:01;8.10;60.00
63013;DHT22;62113;45.624;11.700;2023-03-05T04:07:27;8.00;59.90
63013;DHT22;62113;45.624;11.700;2023-03-05T04:09:52;8.00;59.80
63013;DHT22;62113;45.624;11.700;2023-03-05T04:12:18;7.90;59.90
63013;DHT22;62113;45.624;11.700;2023-03-05T04:14:44;7.80;59.90
63013;DHT22;62113;45.624;11.700;2023-03-05T04:17:10;7.80;60.00
63013;DHT22;62113;45.624;11.700;2023-03-05T04:19:36;7.80;60.00
63013;DHT22;62113;45.624;11.700;2023-03-05T04:22:01;7.80;60.20
63013;DHT22;62113;45.624;11.700;2023-03-05T04:24:27;7.70;60.10
63013;DHT22;62113;45.624;11.700;2023-03-05T04:26:52;7.70;60.00
63013;DHT22;62113;45.624;11.700;2023-03-05T04:29:18;7.70;60.20
63013;DHT22;62113;45.624;11.700;2023-03-05T04:31:43;7.70;60.10
63013;DHT22;62113;45.624;11.700;2023-03-05T04:34:08;7.70;60.10
63013;DHT22;62113;45.624;11.700;2023-03-05T04:36:34;7.60;60.10
63013;DHT22;62113;45.624;11.700;2023-03-05T04:38:59;7.60;60.20
63013;DHT22;62113;45.624;11.700;2023-03-05T04:41:25;7.50;60.30
63013;DHT22;62113;45.624;11.700;2023-03-05T04:43:50;7.60;60.30
63013;DHT22;62113;45.624;11.700;2023-03-05T04:46:16;7.60;60.40
63013;DHT22;62113;45.624;11.700;2023-03-05T04:48:41;7.60;60.30
63013;DHT22;62113;45.624;11.700;2023-03-05T04:51:07;7.60;60.20
63013;DHT22;62113;45.624;11.700;2023-03-05T04:53:32;7.60;60.10
63013;DHT22;62113;45.624;11.700;2023-03-05T04:55:58;7.50;60.10
63013;DHT22;62113;45.624;11.700;2023-03-05T04:58:26;7.50;60.30
63013;DHT22;62113;45.624;11.700;2023-03-05T05:00:51;7.40;60.40
63013;DHT22;62113;45.624;11.700;2023-03-05T05:03:17;7.50;60.50
63013;DHT22;62113;45.624;11.700;2023-03-05T05:05:42;7.40;60.30
63013;DHT22;62113;45.624;11.700;2023-03-05T05:08:08;7.40;60.30
63013;DHT22;62113;45.624;11.700;2023-03-05T05:10:34;7.40;60.60
63013;DHT22;62113;45.624;11.700;2023-03-05T05:12:59;7.40;60.40
63013;DHT22;62113;45.624;11.700;2023-03-05T05:15:25;7.30;60.40
63013;DHT22;62113;45.624;11.700;2023-03-05T05:17:50;7.30;60.40
63013;DHT22;62113;45.624;11.700;2023-03-05T05:20:16;7.30;60.80
63013;DHT22;62113;45.624;11.700;2023-03-05T05:22:42;7.30;60.50
63013;DHT22;62113;45.624;11.700;2023-03-05T05:25:08;7.30;60.80
63013;DHT22;62113;45.624;11.700;2023-03-05T05:27:34;7.30;60.70
63013;DHT22;62113;45.624;11.700;2023-03-05T05:30:00;7.30;60.60
63013;DHT22;62113;45.624;11.700;2023-03-05T05:32:25;7.30;60.60
63013;DHT22;62113;45.624;11.700;2023-03-05T05:34:55;7.30;60.60
63013;DHT22;62113;45.624;11.700;2023-03-05T05:37:21;7.20;60.60
63013;DHT22;62113;45.624;11.700;2023-03-05T05:39:46;7.20;60.70
63013;DHT22;62113;45.624;11.700;2023-03-05T05:42:15;7.20;60.90
63013;DHT22;62113;45.624;11.700;2023-03-05T05:44:40;7.20;61.00
63013;DHT22;62113;45.624;11.700;2023-03-05T05:47:06;7.20;60.90
63013;DHT22;62113;45.624;11.700;2023-03-05T05:49:31;7.20;61.20
63013;DHT22;62113;45.624;11.700;2023-03-05T05:51:57;7.20;61.00
63013;DHT22;62113;45.624;11.700;2023-03-05T05:54:23;7.20;61.20
63013;DHT22;62113;45.624;11.700;2023-03-05T05:56:49;7.20;61.00
63013;DHT22;62113;45.624;11.700;2023-03-05T05:59:14;7.20;61.20
63013;DHT22;62113;45.624;11.700;2023-03-05T06:01:39;7.20;61.20
63013;DHT22;62113;45.624;11.700;2023-03-05T06:04:05;7.20;61.20
63013;DHT22;62113;45.624;11.700;2023-03-05T06:06:30;7.30;61.10
63013;DHT22;62113;45.624;11.700;2023-03-05T06:08:57;7.30;61.20
63013;DHT22;62113;45.624;11.700;2023-03-05T06:11:23;7.50;61.40
63013;DHT22;62113;45.624;11.700;2023-03-05T06:13:48;7.80;61.50
63013;DHT22;62113;45.624;11.700;2023-03-05T06:16:15;8.00;61.50
63013;DHT22;62113;45.624;11.700;2023-03-05T06:18:41;8.40;61.30
63013;DHT22;62113;45.624;11.700;2023-03-05T06:21:09;8.80;60.70
63013;DHT22;62113;45.624;11.700;2023-03-05T06:23:35;9.40;60.10
63013;DHT22;62113;45.624;11.700;2023-03-05T06:26:01;9.90;58.80
63013;DHT22;62113;45.624;11.700;2023-03-05T06:28:27;10.40;56.90
63013;DHT22;62113;45.624;11.700;2023-03-05T06:31:03;11.00;57.30
63013;DHT22;62113;45.624;11.700;2023-03-05T06:33:28;11.40;55.90
63013;DHT22;62113;45.624;11.700;2023-03-05T06:35:54;12.00;55.20
63013;DHT22;62113;45.624;11.700;2023-03-05T06:38:20;12.40;53.80
63013;DHT22;62113;45.624;11.700;2023-03-05T06:40:45;12.90;52.80
63013;DHT22;62113;45.624;11.700;2023-03-05T06:43:11;13.30;50.60
63013;DHT22;62113;45.624;11.700;2023-03-05T06:45:36;13.70;51.00
63013;DHT22;62113;45.624;11.700;2023-03-05T06:48:02;14.20;49.90
63013;DHT22;62113;45.624;11.700;2023-03-05T06:50:27;14.60;49.40
63013;DHT22;62113;45.624;11.700;2023-03-05T06:52:53;15.00;47.00
63013;DHT22;62113;45.624;11.700;2023-03-05T06:55:18;15.40;46.00
63013;DHT22;62113;45.624;11.700;2023-03-05T06:57:44;15.80;43.90
63013;DHT22;62113;45.624;11.700;2023-03-05T07:00:09;16.20;42.90
63013;DHT22;62113;45.624;11.700;2023-03-05T07:02:38;16.60;42.50
63013;DHT22;62113;45.624;11.700;2023-03-05T07:05:04;17.10;42.10
63013;DHT22;62113;45.624;11.700;2023-03-05T07:07:30;17.40;40.90
63013;DHT22;62113;45.624;11.700;2023-03-05T07:09:56;17.80;40.20
63013;DHT22;62113;45.624;11.700;2023-03-05T07:12:21;18.20;39.80
63013;DHT22;62113;45.624;11.700;2023-03-05T07:14:47;18.60;38.80
63013;DHT22;62113;45.624;11.700;2023-03-05T07:17:12;19.00;38.10
63013;DHT22;62113;45.624;11.700;2023-03-05T07:19:39;19.30;37.30
63013;DHT22;62113;45.624;11.700;2023-03-05T07:22:05;19.70;36.40
63013;DHT22;62113;45.624;11.700;2023-03-05T07:24:31;20.00;35.80
63013;DHT22;62113;45.624;11.700;2023-03-05T07:26:56;20.40;35.00
63013;DHT22;62113;45.624;11.700;2023-03-05T07:29:22;20.90;35.10
63013;DHT22;62113;45.624;11.700;2023-03-05T07:31:48;21.30;33.80
63013;DHT22;62113;45.624;11.700;2023-03-05T07:34:14;21.70;33.80
63013;DHT22;62113;45.624;11.700;2023-03-05T07:36:39;22.10;33.60
63013;DHT22;62113;45.624;11.700;2023-03-05T07:39:06;22.50;32.00
63013;DHT22;62113;45.624;11.700;2023-03-05T07:41:32;22.80;31.30
63013;DHT22;62113;45.624;11.700;2023-03-05T07:43:57;23.20;30.50
63013;DHT22;62113;45.624;11.700;2023-03-05T07:46:25;23.50;30.50
63013;DHT22;62113;45.624;11.700;2023-03-05T07:48:51;23.80;29.20
63013;DHT22;62113;45.624;11.700;2023-03-05T07:51:19;24.20;28.60
63013;DHT22;62113;45.624;11.700;2023-03-05T07:53:45;24.50;29.40
63013;DHT22;62113;45.624;11.700;2023-03-05T07:56:11;24.80;29.20
63013;DHT22;62113;45.624;11.700;2023-03-05T07:58:36;25.10;28.90
63013;DHT22;62113;45.624;11.700;2023-03-05T08:01:02;25.20;27.30
63013;DHT22;62113;45.624;11.700;2023-03-05T08:03:28;25.40;29.00
63013;DHT22;62113;45.624;11.700;2023-03-05T08:05:53;25.70;27.90
63013;DHT22;62113;45.624;11.700;2023-03-05T08:08:19;25.70;28.70
63013;DHT22;62113;45.624;11.700;2023-03-05T08:10:44;25.60;27.90
63013;DHT22;62113;45.624;11.700;2023-03-05T08:13:10;25.50;28.10
63013;DHT22;62113;45.624;11.700;2023-03-05T08:15:36;25.40;28.50
63013;DHT22;62113;45.624;11.700;2023-03-05T08:18:01;25.40;28.30
63013;DHT22;62113;45.624;11.700;2023-03-05T08:20:27;25.20;28.70
63013;DHT22;62113;45.624;11.700;2023-03-05T08:22:52;25.30;27.90
63013;DHT22;62113;45.624;11.700;2023-03-05T08:25:18;25.90;27.40
63013;DHT22;62113;45.624;11.700;2023-03-05T08:27:44;26.50;26.60
63013;DHT22;62113;45.624;11.700;2023-03-05T08:30:11;26.70;26.50
63013;DHT22;62113;45.624;11.700;2023-03-05T08:32:37;26.90;26.00
63013;DHT22;62113;45.624;11.700;2023-03-05T08:35:03;27.20;26.50
63013;DHT22;62113;45.624;11.700;2023-03-05T08:37:29;27.60;25.70
63013;DHT22;62113;45.624;11.700;2023-03-05T08:39:55;28.10;25.10
63013;DHT22;62113;45.624;11.700;2023-03-05T08:42:21;28.60;24.30
63013;DHT22;62113;45.624;11.700;2023-03-05T08:44:46;28.50;24.30
63013;DHT22;62113;45.624;11.700;2023-03-05T08:47:12;28.50;23.90
63013;DHT22;62113;45.624;11.700;2023-03-05T08:49:37;28.50;23.50
63013;DHT22;62113;45.624;11.700;2023-03-05T08:52:03;28.30;24.10
63013;DHT22;62113;45.624;11.700;2023-03-05T08:54:29;28.30;24.50
63013;DHT22;62113;45.624;11.700;2023-03-05T08:56:54;28.90;25.50
63013;DHT22;62113;45.624;11.700;2023-03-05T08:59:20;29.80;23.50
63013;DHT22;62113;45.624;11.700;2023-03-05T09:01:45;30.80;22.10
63013;DHT22;62113;45.624;11.700;2023-03-05T09:04:11;31.60;20.60
63013;DHT22;62113;45.624;11.700;2023-03-05T09:06:36;32.30;20.30
63013;DHT22;62113;45.624;11.700;2023-03-05T09:09:05;32.90;19.20
63013;DHT22;62113;45.624;11.700;2023-03-05T09:11:31;33.30;19.50
63013;DHT22;62113;45.624;11.700;2023-03-05T09:14:03;33.30;19.80
63013;DHT22;62113;45.624;11.700;2023-03-05T09:16:29;33.10;18.90
63013;DHT22;62113;45.624;11.700;2023-03-05T09:18:54;33.10;18.40
63013;DHT22;62113;45.624;11.700;2023-03-05T09:21:20;32.90;18.70
63013;DHT22;62113;45.624;11.700;2023-03-05T09:23:45;33.20;18.30
63013;DHT22;62113;45.624;11.700;2023-03-05T09:26:12;33.40;19.30
63013;DHT22;62113;45.624;11.700;2023-03-05T09:28:38;33.40;19.50
63013;DHT22;62113;45.624;11.700;2023-03-05T09:31:04;33.20;19.50
63013;DHT22;62113;45.624;11.700;2023-03-05T09:33:30;33.00;19.10
63013;DHT22;62113;45.624;11.700;2023-03-05T09:35:56;32.80;19.70
63013;DHT22;62113;45.624;11.700;2023-03-05T09:38:22;32.40;19.30
63013;DHT22;62113;45.624;11.700;2023-03-05T09:45:59;31.20;20.20
63013;DHT22;62113;45.624;11.700;2023-03-05T09:51:11;30.50;21.20
63013;DHT22;62113;45.624;11.700;2023-03-05T09:56:13;29.90;21.10
63013;DHT22;62113;45.624;11.700;2023-03-05T09:58:40;29.10;22.00
63013;DHT22;62113;45.624;11.700;2023-03-05T10:01:10;28.40;23.00
63013;DHT22;62113;45.624;11.700;2023-03-05T10:06:20;27.50;23.50
63013;DHT22;62113;45.624;11.700;2023-03-05T10:11:25;25.60;24.70
63013;DHT22;62113;45.624;11.700;2023-03-05T10:13:53;25.20;25.70
63013;DHT22;62113;45.624;11.700;2023-03-05T10:16:30;24.80;26.30
63013;DHT22;62113;45.624;11.700;2023-03-05T10:19:05;24.60;27.30
63013;DHT22;62113;45.624;11.700;2023-03-05T10:21:43;24.40;27.00
63013;DHT22;62113;45.624;11.700;2023-03-05T10:26:54;24.40;27.70
63013;DHT22;62113;45.624;11.700;2023-03-05T10:32:15;24.30;28.20
63013;DHT22;62113;45.624;11.700;2023-03-05T10:40:10;23.30;29.10
63013;DHT22;62113;45.624;11.700;2023-03-05T10:45:42;22.60;30.50
63013;DHT22;62113;45.624;11.700;2023-03-05T10:50:35;22.30;30.40
63013;DHT22;62113;45.624;11.700;2023-03-05T10:55:30;22.10;31.20
63013;DHT22;62113;45.624;11.700;2023-03-05T10:57:56;21.80;31.20
63013;DHT22;62113;45.624;11.700;2023-03-05T11:00:22;21.50;31.30
63013;DHT22;62113;45.624;11.700;2023-03-05T11:02:52;21.60;31.50
63013;DHT22;62113;45.624;11.700;2023-03-05T11:05:31;21.60;31.90
63013;DHT22;62113;45.624;11.700;2023-03-05T11:07:59;21.60;32.30
63013;DHT22;62113;45.624;11.700;2023-03-05T11:10:24;21.50;32.30
63013;DHT22;62113;45.624;11.700;2023-03-05T11:12:50;21.50;33.30
63013;DHT22;62113;45.624;11.700;2023-03-05T11:17:42;21.40;32.90
63013;DHT22;62113;45.624;11.700;2023-03-05T11:25:28;21.50;32.60
63013;DHT22;62113;45.624;11.700;2023-03-05T11:27:54;21.30;32.90
63013;DHT22;62113;45.624;11.700;2023-03-05T11:30:21;21.30;32.90
63013;DHT22;62113;45.624;11.700;2023-03-05T11:32:49;21.30;33.30
63013;DHT22;62113;45.624;11.700;2023-03-05T11:35:28;21.30;33.30
63013;DHT22;62113;45.624;11.700;2023-03-05T11:37:58;21.40;33.30
63013;DHT22;62113;45.624;11.700;2023-03-05T11:40:24;21.30;33.10
63013;DHT22;62113;45.624;11.700;2023-03-05T11:42:56;21.20;33.00
63013;DHT22;62113;45.624;11.700;2023-03-05T11:45:22;20.90;33.40
63013;DHT22;62113;45.624;11.700;2023-03-05T11:47:49;20.70;33.60
63013;DHT22;62113;45.624;11.700;2023-03-05T11:52:54;20.50;34.40
63013;DHT22;62113;45.624;11.700;2023-03-05T11:55:29;20.40;34.30
63013;DHT22;62113;45.624;11.700;2023-03-05T12:00:29;20.50;34.30
63013;DHT22;62113;45.624;11.700;2023-03-05T12:02:56;20.30;34.60
63013;DHT22;62113;45.624;11.700;2023-03-05T12:05:22;20.20;34.70
63013;DHT22;62113;45.624;11.700;2023-03-05T12:07:49;20.20;35.20
63013;DHT22;62113;45.624;11.700;2023-03-05T12:10:16;20.30;35.50
63013;DHT22;62113;45.624;11.700;2023-03-05T12:13:00;20.30;35.70
63013;DHT22;62113;45.624;11.700;2023-03-05T12:23:15;20.00;35.70
63013;DHT22;62113;45.624;11.700;2023-03-05T12:28:14;20.10;35.90
63013;DHT22;62113;45.624;11.700;2023-03-05T12:33:12;20.30;36.00
63013;DHT22;62113;45.624;11.700;2023-03-05T12:35:51;20.40;36.00
63013;DHT22;62113;45.624;11.700;2023-03-05T12:38:17;20.50;35.80
63013;DHT22;62113;45.624;11.700;2023-03-05T12:40:43;20.50;36.00
63013;DHT22;62113;45.624;11.700;2023-03-05T12:43:31;20.60;36.00
63013;DHT22;62113;45.624;11.700;2023-03-05T12:48:41;20.70;35.80
63013;DHT22;62113;45.624;11.700;2023-03-05T12:51:10;20.80;35.50
63013;DHT22;62113;45.624;11.700;2023-03-05T12:53:35;20.80;35.40
63013;DHT22;62113;45.624;11.700;2023-03-05T12:56:12;20.70;35.00
63013;DHT22;62113;45.624;11.700;2023-03-05T12:58:44;20.60;35.10
63013;DHT22;62113;45.624;11.700;2023-03-05T13:01:28;20.40;35.70
63013;DHT22;62113;45.624;11.700;2023-03-05T13:03:59;20.30;35.40
63013;DHT22;62113;45.624;11.700;2023-03-05T13:08:55;20.30;35.80
63013;DHT22;62113;45.624;11.700;2023-03-05T13:11:21;20.30;35.90
63013;DHT22;62113;45.624;11.700;2023-03-05T13:13:47;20.20;35.90
63013;DHT22;62113;45.624;11.700;2023-03-05T13:16:19;20.30;36.20
63013;DHT22;62113;45.624;11.700;2023-03-05T13:18:46;20.20;37.10
63013;DHT22;62113;45.624;11.700;2023-03-05T13:21:14;20.00;36.40
63013;DHT22;62113;45.624;11.700;2023-03-05T13:26:18;19.80;37.10
63013;DHT22;62113;45.624;11.700;2023-03-05T13:28:44;19.90;37.10
63013;DHT22;62113;45.624;11.700;2023-03-05T13:31:26;19.80;37.40
63013;DHT22;62113;45.624;11.700;2023-03-05T13:33:56;19.80;36.80
63013;DHT22;62113;45.624;11.700;2023-03-05T13:36:24;19.70;37.10
63013;DHT22;62113;45.624;11.700;2023-03-05T13:38:49;19.70;37.50
63013;DHT22;62113;45.624;11.700;2023-03-05T13:41:20;19.70;37.50
63013;DHT22;62113;45.624;11.700;2023-03-05T13:43:51;19.70;38.00
63013;DHT22;62113;45.624;11.700;2023-03-05T13:46:30;19.70;37.70
63013;DHT22;62113;45.624;11.700;2023-03-05T13:48:57;19.60;38.20
63013;DHT22;62113;45.624;11.700;2023-03-05T13:51:44;19.60;37.90
63013;DHT22;62113;45.624;11.700;2023-03-05T13:54:12;19.40;37.90
63013;DHT22;62113;45.624;11.700;2023-03-05T13:56:47;19.30;38.50
63013;DHT22;62113;45.624;11.700;2023-03-05T13:59:16;19.20;38.30
63013;DHT22;62113;45.624;11.700;2023-03-05T14:01:43;19.20;38.50
63013;DHT22;62113;45.624;11.700;2023-03-05T14:06:40;19.10;38.90
63013;DHT22;62113;45.624;11.700;2023-03-05T14:09:07;19.10;39.50
63013;DHT22;62113;45.624;11.700;2023-03-05T14:11:33;19.20;38.70
63013;DHT22;62113;45.624;11.700;2023-03-05T14:14:13;19.20;39.00
63013;DHT22;62113;45.624;11.700;2023-03-05T14:16:39;18.90;38.80
63013;DHT22;62113;45.624;11.700;2023-03-05T14:19:05;18.70;40.10
63013;DHT22;62113;45.624;11.700;2023-03-05T14:21:43;18.80;39.90
63013;DHT22;62113;45.624;11.700;2023-03-05T14:24:14;18.80;39.70
63013;DHT22;62113;45.624;11.700;2023-03-05T14:26:53;18.90;39.40
63013;DHT22;62113;45.624;11.700;2023-03-05T14:29:23;19.00;39.10
63013;DHT22;62113;45.624;11.700;2023-03-05T14:31:56;18.90;39.10
63013;DHT22;62113;45.624;11.700;2023-03-05T14:34:36;18.80;38.90
63013;DHT22;62113;45.624;11.700;2023-03-05T14:37:03;18.80;39.00
63013;DHT22;62113;45.624;11.700;2023-03-05T14:39:30;18.80;39.20
63013;DHT22;62113;45.624;11.700;2023-03-05T14:44:59;18.60;38.80
63013;DHT22;62113;45.624;11.700;2023-03-05T14:47:25;18.50;39.40
63013;DHT22;62113;45.624;11.700;2023-03-05T14:49:51;18.60;39.80
63013;DHT22;62113;45.624;11.700;2023-03-05T14:52:17;18.40;39.40
63013;DHT22;62113;45.624;11.700;2023-03-05T14:54:43;18.40;39.10
63013;DHT22;62113;45.624;11.700;2023-03-05T14:57:12;18.40;39.20
63013;DHT22;62113;45.624;11.700;2023-03-05T14:59:38;18.30;38.30
63013;DHT22;62113;45.624;11.700;2023-03-05T15:02:07;18.10;38.70
63013;DHT22;62113;45.624;11.700;2023-03-05T15:04:34;18.00;39.10
63013;DHT22;62113;45.624;11.700;2023-03-05T15:07:00;18.00;39.50
63013;DHT22;62113;45.624;11.700;2023-03-05T15:09:25;18.00;39.60
63013;DHT22;62113;45.624;11.700;2023-03-05T15:11:51;18.00;39.90
63013;DHT22;62113;45.624;11.700;2023-03-05T15:14:16;18.00;39.10
63013;DHT22;62113;45.624;11.700;2023-03-05T15:16:42;18.00;38.90
63013;DHT22;62113;45.624;11.700;2023-03-05T15:19:10;18.00;38.90
63013;DHT22;62113;45.624;11.700;2023-03-05T15:21:36;17.90;38.60
63013;DHT22;62113;45.624;11.700;2023-03-05T15:24:01;17.90;38.60
63013;DHT22;62113;45.624;11.700;2023-03-05T15:26:27;17.80;38.80
63013;DHT22;62113;45.624;11.700;2023-03-05T15:28:52;17.80;38.80
63013;DHT22;62113;45.624;11.700;2023-03-05T15:31:18;17.70;39.00
63013;DHT22;62113;45.624;11.700;2023-03-05T15:33:43;17.70;39.00
63013;DHT22;62113;45.624;11.700;2023-03-05T15:36:09;17.70;39.10
63013;DHT22;62113;45.624;11.700;2023-03-05T15:38:34;17.70;39.10
63013;DHT22;62113;45.624;11.700;2023-03-05T15:41:03;17.70;39.30
63013;DHT22;62113;45.624;11.700;2023-03-05T15:43:28;17.70;39.30
63013;DHT22;62113;45.624;11.700;2023-03-05T15:45:55;17.60;38.70
63013;DHT22;62113;45.624;11.700;2023-03-05T15:48:20;17.50;38.50
63013;DHT22;62113;45.624;11.700;2023-03-05T15:50:45;17.40;38.80
63013;DHT22;62113;45.624;11.700;2023-03-05T15:53:12;17.50;39.50
63013;DHT22;62113;45.624;11.700;2023-03-05T15:55:39;17.50;39.30
63013;DHT22;62113;45.624;11.700;2023-03-05T15:58:05;17.40;39.30
63013;DHT22;62113;45.624;11.700;2023-03-05T16:00:31;17.40;39.30
63013;DHT22;62113;45.624;11.700;2023-03-05T16:02:58;17.40;39.20
63013;DHT22;62113;45.624;11.700;2023-03-05T16:05:24;17.30;39.40
63013;DHT22;62113;45.624;11.700;2023-03-05T16:07:50;17.30;39.60
63013;DHT22;62113;45.624;11.700;2023-03-05T16:10:17;17.20;40.00
63013;DHT22;62113;45.624;11.700;2023-03-05T16:12:46;17.20;40.00
63013;DHT22;62113;45.624;11.700;2023-03-05T16:15:14;17.10;40.10
63013;DHT22;62113;45.624;11.700;2023-03-05T16:17:40;17.00;40.10
63013;DHT22;62113;45.624;11.700;2023-03-05T16:20:06;17.00;40.20
63013;DHT22;62113;45.624;11.700;2023-03-05T16:22:33;16.90;40.30
63013;DHT22;62113;45.624;11.700;2023-03-05T16:24:58;16.90;40.50
63013;DHT22;62113;45.624;11.700;2023-03-05T16:27:25;16.90;40.70
63013;DHT22;62113;45.624;11.700;2023-03-05T16:29:51;16.80;41.50
63013;DHT22;62113;45.624;11.700;2023-03-05T16:32:16;16.80;42.50
63013;DHT22;62113;45.624;11.700;2023-03-05T16:34:42;16.70;43.00
63013;DHT22;62113;45.624;11.700;2023-03-05T16:37:08;16.60;43.80
63013;DHT22;62113;45.624;11.700;2023-03-05T16:39:33;16.50;45.30